Latest Weather Observations for Mackay Airport

IDQ60801

Issued at 3:32 pm EST Friday 24 February 2017 (issued every 30 minutes, with the page automatically refreshed every 10 minutes)

About weather observations | Map of weather stations | Latest weather observations for QLD | Other Formats
Station Details ID: 033045 Name: MACKAY AERO Lat: -21.17 Lon: 149.18 Height: 4.7 m
Data from the previous 72 hours. | See also: Recent months at Mackay Airport
Date/Time
EST
Temp
°C
App
Temp
°C
Dew
Point
°C
Rel
Hum
%
Delta-T
°C
Wind Press
QNH
hPa
Press
MSL
hPa
Rain since
9am
mm
Dir  Spd
km/h
Gust
km/h
Spd
kts
Gust
kts
24/03:00pm 29.9 30.6 23.6 69 4.3 ESE 26 33 14 18 1012.1 1012.1 0.2
24/02:30pm 29.8 30.3 24.0 71 4.0 ESE 28 39 15 21 1012.4 1012.4 0.2
24/02:00pm 30.2 31.5 24.1 70 4.2 SE 24 30 13 16 1012.6 1012.6 0.2
24/01:30pm 29.9 31.2 24.1 71 4.0 SSE 24 32 13 17 1013.0 1013.0 0.2
24/01:00pm 29.2 29.7 22.7 68 4.4 SSE 24 35 13 19 1013.2 1013.2 0.2
24/12:30pm 28.1 29.0 23.9 78 2.9 SSE 26 33 14 18 1013.8 1013.8 0.2
24/12:00pm 29.4 30.2 23.8 72 3.9 SE 26 41 14 22 1014.0 1014.0 0.2
24/11:30am 28.2 28.3 23.3 75 3.4 SSE 28 35 15 19 1014.3 1014.3 0.2
24/11:00am 28.0 28.6 24.2 80 2.6 SSE 28 39 15 21 1014.7 1014.7 0.2
24/10:39am 27.1 27.2 24.6 86 1.7 SE 32 41 17 22 1014.7 1014.7 0.2
24/10:30am 27.5 28.3 25.1 87 1.7 SSE 30 41 16 22 1014.7 1014.7 0.2
24/10:25am 27.3 28.0 24.9 87 1.7 SSE 30 39 16 21 1014.7 1014.7 0.2
24/10:15am 27.4 28.0 24.7 85 1.9 SE 30 37 16 20 1014.8 1014.8 0.0
24/10:02am 26.7 26.8 24.5 88 1.5 SE 32 39 17 21 1014.8 1014.8 0.0
24/10:00am 26.7 26.5 24.0 85 1.9 SE 32 44 17 24 1014.8 1014.8 0.0
24/09:30am 29.5 29.8 24.8 76 3.3 SE 32 43 17 23 1014.5 1014.5 0.0
24/09:00am 28.7 30.0 24.0 76 3.2 SSE 24 35 13 19 1014.4 1014.4 0.2
24/08:30am 27.4 28.2 23.8 81 2.5 SSE 26 32 14 17 1014.2 1014.2 0.2
24/08:00am 27.4 28.7 24.1 82 2.3 SSE 24 32 13 17 1014.2 1014.2 0.2
24/07:30am 26.5 28.7 24.0 86 1.7 S 19 28 10 15 1014.1 1014.1 0.2
24/07:00am 25.0 27.9 23.8 93 0.8 S 15 20 8 11 1013.9 1013.9 0.2
24/06:30am 24.1 27.5 23.4 96 0.5 SW 11 15 6 8 1013.9 1013.9 0.2
24/06:00am 24.0 27.6 23.1 95 0.6 SSW 9 13 5 7 1013.7 1013.7 0.2
24/05:30am 24.4 27.3 23.2 93 0.8 S 13 17 7 9 1013.5 1013.5 0.2
24/05:00am 24.6 27.3 23.4 93 0.8 S 15 19 8 10 1013.3 1013.3 0.2
24/04:30am 24.6 27.3 23.4 93 0.8 S 15 17 8 9 1013.3 1013.3 0.2
24/04:00am 24.8 27.2 23.6 93 0.8 S 17 20 9 11 1013.2 1013.2 0.2
24/03:30am 24.5 27.6 23.6 95 0.6 SSW 13 15 7 8 1013.2 1013.2 0.2
24/03:00am 24.8 28.4 23.8 94 0.7 SSW 11 15 6 8 1013.2 1013.2 0.2
24/02:30am 25.0 28.4 24.0 94 0.7 SSW 13 17 7 9 1013.5 1013.5 0.2
24/02:21am 25.0 28.8 24.0 94 0.7 SSW 11 15 6 8 1013.5 1013.5 0.2
24/02:05am 25.2 29.0 24.0 93 0.8 SSW 11 17 6 9 1013.7 1013.7 0.2
24/02:00am 25.3 29.3 23.7 91 1.1 S 9 11 5 6 1013.8 1013.8 0.0
24/01:30am 25.3 28.8 23.5 90 1.2 SSW 11 13 6 7 1014.1 1014.1 0.0
24/01:00am 25.4 28.5 23.6 90 1.2 SSW 13 17 7 9 1014.3 1014.3 0.0
24/12:30am 25.4 28.5 23.6 90 1.2 S 13 15 7 8 1014.8 1014.8 0.0
24/12:00am 25.4 28.9 23.5 89 1.3 SSW 11 17 6 9 1015.0 1015.0 0.0
 
Date/Time
EST
Temp
°C
App
Temp
°C
Dew
Point
°C
Rel
Hum
%
Delta-T
°C
Wind Press
QNH
hPa
Press
MSL
hPa
Rain since
9am
mm
Dir  Spd
km/h
Gust
km/h
Spd
kts
Gust
kts
23/11:30pm 27.1 29.3 23.3 80 2.6 SSE 17 22 9 12 1015.1 1015.1 0.0
23/11:00pm 27.5 29.7 23.3 78 2.9 ESE 17 22 9 12 1015.0 1015.0 0.0
23/10:30pm 27.9 29.3 23.5 77 3.0 ESE 22 28 12 15 1015.0 1015.0 0.0
23/10:00pm 27.7 29.7 23.9 80 2.6 ESE 20 26 11 14 1014.9 1014.9 0.0
23/09:30pm 27.8 29.2 23.6 78 2.9 ESE 22 28 12 15 1015.0 1015.0 0.0
23/09:00pm 28.0 29.2 23.8 78 2.9 ESE 24 33 13 18 1014.7 1014.7 0.0
23/08:30pm 28.1 30.1 23.9 78 2.9 ESE 20 28 11 15 1014.7 1014.7 0.0
23/08:00pm 28.1 28.9 23.2 74 3.3 ESE 24 30 13 16 1014.3 1014.3 0.0
23/07:30pm 28.1 29.7 23.9 78 2.9 ESE 22 28 12 15 1013.9 1013.9 0.0
23/07:00pm 28.1 29.6 23.7 77 3.0 ESE 22 28 12 15 1013.7 1013.7 0.0
23/06:30pm 28.1 29.6 23.7 77 3.0 ESE 22 30 12 16 1013.4 1013.4 0.0
23/06:00pm 28.6 30.1 23.7 75 3.4 ESE 22 30 12 16 1013.1 1013.1 0.0
23/05:30pm 29.2 30.6 23.6 72 3.9 ESE 22 30 12 16 1013.0 1013.0 0.0
23/05:00pm 29.7 30.8 23.6 69 4.2 ESE 24 32 13 17 1012.8 1012.8 0.0
23/04:30pm 29.7 30.6 23.9 71 4.0 SE 26 32 14 17 1012.7 1012.7 0.0
23/04:00pm 29.9 30.4 23.3 67 4.5 SE 26 33 14 18 1012.4 1012.4 0.0
23/03:30pm 29.8 29.8 23.7 70 4.2 SE 30 35 16 19 1012.5 1012.5 0.0
23/03:00pm 30.4 31.2 24.5 70 4.1 SE 28 35 15 19 1012.9 1012.9 0.0
23/02:30pm 30.4 31.0 24.8 72 3.9 SE 30 35 16 19 1013.3 1013.3 0.0
23/02:00pm 30.3 30.3 23.7 68 4.6 SE 30 37 16 20 1013.7 1013.7 0.0
23/01:30pm 30.2 29.9 23.9 69 4.4 SE 32 41 17 22 1014.0 1014.0 0.0
23/01:00pm 30.3 30.4 24.0 69 4.4 SE 30 37 16 20 1014.0 1014.0 0.0
23/12:30pm 30.2 29.6 23.4 67 4.7 SE 32 41 17 22 1014.3 1014.3 0.0
23/12:00pm 30.6 30.9 24.3 69 4.4 SE 30 37 16 20 1014.6 1014.6 0.0
23/11:30am 30.2 29.7 23.6 67 4.6 SSE 32 41 17 22 1014.8 1014.8 0.0
23/11:00am 29.8 29.7 23.5 69 4.3 SE 30 37 16 20 1015.0 1015.0 0.0
23/10:30am 30.2 30.8 24.8 73 3.8 SE 30 39 16 21 1015.2 1015.2 0.0
23/10:00am 29.4 29.5 24.0 72 3.7 SE 30 41 16 22 1015.5 1015.5 0.0
23/09:30am 29.2 31.3 24.7 77 3.1 SSE 22 30 12 16 1015.6 1015.6 0.0
23/09:00am 27.2 30.3 24.1 83 2.1 SSE 15 22 8 12 1015.8 1015.8 2.8
23/08:30am 27.1 29.4 24.4 85 1.9 SSE 20 32 11 17 1015.5 1015.5 2.8
23/08:00am 27.0 29.7 24.1 84 2.0 S 17 24 9 13 1015.2 1015.2 2.8
23/07:30am 25.9 28.3 23.6 87 1.6 S 17 24 9 13 1015.0 1015.0 2.8
23/07:00am 25.2 27.9 23.4 90 1.2 S 15 19 8 10 1014.6 1014.6 2.8
23/06:30am 24.9 26.7 23.3 91 1.1 S 19 24 10 13 1014.6 1014.6 2.8
23/06:00am 25.2 27.7 23.1 88 1.4 S 15 20 8 11 1014.1 1014.1 2.8
23/05:30am 27.4 27.2 23.4 79 2.7 SE 30 39 16 21 1013.7 1013.7 2.8
23/05:00am 27.1 26.8 23.3 80 2.6 SE 30 41 16 22 1013.4 1013.4 2.8
23/04:30am 27.4 28.1 23.6 80 2.6 SE 26 33 14 18 1013.1 1013.1 2.4
23/04:00am 27.1 27.2 23.3 80 2.6 SE 28 35 15 19 1013.0 1013.0 2.4
23/03:30am 27.2 28.1 23.4 80 2.6 SE 24 33 13 18 1012.9 1012.9 2.4
23/03:00am 27.0 28.3 23.3 80 2.5 ESE 22 30 12 16 1013.0 1013.0 2.4
23/02:30am 27.0 28.0 23.5 81 2.4 ESE 24 30 13 16 1013.2 1013.2 2.4
23/02:00am 27.3 27.5 23.5 80 2.6 ESE 28 35 15 19 1013.4 1013.4 2.4
23/01:30am 27.3 28.0 23.7 81 2.5 ESE 26 33 14 18 1013.6 1013.6 2.4
23/01:00am 27.3 28.2 24.0 82 2.3 ESE 26 35 14 19 1014.0 1014.0 2.4
23/12:30am 27.4 28.1 24.3 83 2.1 ESE 28 37 15 20 1014.2 1014.2 2.4
23/12:00am 27.1 29.6 25.3 90 1.3 E 22 32 12 17 1014.3 1014.3 2.4
 
Date/Time
EST
Temp
°C
App
Temp
°C
Dew
Point
°C
Rel
Hum
%
Delta-T
°C
Wind Press
QNH
hPa
Press
MSL
hPa
Rain since
9am
mm
Dir  Spd
km/h
Gust
km/h
Spd
kts
Gust
kts
22/11:44pm 26.3 29.0 25.1 93 0.8 ENE 20 30 11 16 1014.4 1014.4 2.4
22/11:43pm 26.2 28.9 25.0 93 0.8 ENE 20 30 11 16 1014.4 1014.4 2.4
22/11:32pm 25.9 27.5 24.5 92 1.0 E 24 41 13 22 1014.6 1014.6 2.4
22/11:30pm 25.7 26.9 23.9 90 1.2 E 24 41 13 22 1014.6 1014.6 2.4
22/11:29pm 25.6 26.6 23.5 88 1.4 E 24 41 13 22 1014.7 1014.7 2.4
22/11:00pm 26.8 29.2 24.6 88 1.5 E 20 30 11 16 1014.7 1014.7 2.0
22/10:30pm 25.8 26.3 24.0 90 1.2 E 28 44 15 24 1014.9 1014.9 2.0
22/10:00pm 26.7 27.5 23.2 81 2.4 ESE 24 32 13 17 1014.7 1014.7 2.0
22/09:30pm 26.1 25.9 24.1 89 1.4 ESE 32 41 17 22 1014.4 1014.4 2.0
22/09:20pm 25.9 24.8 23.4 86 1.7 ESE 35 50 19 27 1014.4 1014.4 2.0
22/09:00pm 25.1 22.6 23.7 92 1.0 ESE 43 56 23 30 1014.4 1014.4 1.6
22/08:56pm 25.0 21.7 22.3 85 1.8 ESE 43 56 23 30 1014.4 1014.4 0.8
22/08:48pm 27.9 28.7 24.5 82 2.4 ESE 28 46 15 25 1014.1 1014.1 0.2
22/08:30pm 27.6 28.1 24.0 81 2.5 ESE 28 35 15 19 1013.8 1013.8 0.2
22/08:00pm 27.8 28.7 24.6 83 2.2 ESE 28 37 15 20 1013.6 1013.6 0.2
22/07:30pm 27.1 26.9 24.0 83 2.1 ESE 32 44 17 24 1013.3 1013.3 0.2
22/07:00pm 28.3 28.0 23.9 77 3.0 ESE 32 39 17 21 1013.0 1013.0 0.2
22/06:30pm 28.3 27.3 23.7 76 3.2 SE 35 43 19 23 1012.7 1012.7 0.2
22/06:00pm 28.2 27.4 23.3 75 3.4 SE 33 43 18 23 1012.5 1012.5 0.2
22/05:30pm 27.9 26.4 22.8 74 3.5 SE 35 44 19 24 1012.5 1012.5 0.2
22/05:00pm 29.1 29.7 24.7 77 3.1 SE 30 37 16 20 1012.2 1012.2 0.2
22/04:30pm 29.7 29.6 23.6 69 4.2 SE 30 39 16 21 1012.3 1012.3 0.2
22/04:00pm 29.3 29.7 24.4 75 3.4 SE 30 39 16 21 1012.3 1012.3 0.2
22/03:30pm 30.0 29.4 23.7 69 4.4 ESE 33 43 18 23 1012.3 1012.3 0.2
22/03:00pm 30.3 30.3 23.7 68 4.6 SE 30 35 16 19 1012.4 1012.4 0.2
22/02:30pm 30.3 30.4 24.0 69 4.4 ESE 30 37 16 20 1012.4 1012.4 0.2
22/02:00pm 30.5 29.9 23.4 66 4.9 SE 32 39 17 21 1012.5 1012.5 0.2
22/01:30pm 30.3 29.9 23.7 68 4.6 SE 32 39 17 21 1012.8 1012.8 0.2
22/01:00pm 31.0 30.7 24.9 70 4.3 ESE 35 44 19 24 1013.1 1013.1 0.2
22/12:30pm 30.8 31.9 25.6 74 3.7 SE 30 39 16 21 1013.3 1013.3 0.2
22/12:00pm 30.3 30.7 24.4 70 4.1 SE 30 37 16 20 1013.6 1013.6 0.2
22/11:30am 30.0 30.0 23.7 69 4.4 SE 30 37 16 20 1013.8 1013.8 0.2
22/11:00am 30.1 30.7 24.7 73 3.8 SE 30 41 16 22 1014.2 1014.2 0.0
22/10:30am 29.4 30.9 24.9 77 3.2 SE 26 33 14 18 1014.6 1014.6 0.0
22/10:00am 28.9 29.9 24.2 76 3.3 SSE 26 32 14 17 1014.7 1014.7 0.0
22/09:30am 29.1 30.6 24.9 78 2.9 SSE 26 32 14 17 1014.8 1014.8 0.0
22/09:00am 28.5 29.4 23.9 76 3.2 SSE 26 35 14 19 1014.7 1014.7 0.8
22/08:30am 27.3 27.8 24.0 82 2.3 SSE 28 35 15 19 1014.6 1014.6 0.8
22/08:00am 27.8 30.8 24.6 83 2.2 S 17 24 9 13 1014.3 1014.3 0.8
22/07:30am 26.8 30.2 24.6 88 1.5 SSW 15 19 8 10 1014.1 1014.1 0.8
22/07:00am 25.4 29.3 24.2 93 0.8 SW 11 15 6 8 1013.9 1013.9 0.8
22/06:30am 24.9 28.6 23.9 94 0.7 SSW 11 15 6 8 1013.8 1013.8 0.8
22/06:21am 24.9 29.0 24.0 95 0.6 WSW 9 11 5 6 1013.9 1013.9 0.8
22/06:03am 24.7 28.0 23.8 95 0.6 SW 13 15 7 8 1013.7 1013.7 0.8
22/06:00am 24.7 28.0 23.8 95 0.6 SW 13 15 7 8 1013.7 1013.7 0.0
22/05:30am 24.7 28.7 23.8 95 0.6 SW 9 11 5 6 1013.5 1013.5 0.0
22/05:00am 25.0 28.8 24.0 94 0.7 WSW 11 15 6 8 1013.3 1013.3 0.0
22/04:30am 25.1 29.2 23.9 93 0.8 WSW 9 11 5 6 1012.9 1012.9 0.0
22/04:00am 25.2 29.9 24.0 93 0.8 W 6 11 3 6 1012.8 1012.8 0.0
22/03:30am 25.2 29.5 23.6 91 1.1 WSW 7 11 4 6 1012.7 1012.7 0.0
22/03:00am 25.4 29.7 23.6 90 1.2 WNW 7 11 4 6 1012.8 1012.8 0.0
22/02:30am 27.1 30.2 23.6 81 2.4 ENE 13 19 7 10 1012.7 1012.7 0.0
22/02:00am 27.2 31.0 24.1 83 2.1 ESE 11 15 6 8 1012.9 1012.9 0.0
22/01:30am 27.9 31.3 24.1 80 2.6 ENE 13 15 7 8 1013.3 1013.3 0.0
22/01:00am 28.1 30.7 23.9 78 2.9 ENE 17 24 9 13 1013.4 1013.4 0.0
22/12:30am 27.8 30.6 23.6 78 2.9 E 15 20 8 11 1013.7 1013.7 0.0
22/12:00am 28.3 30.3 23.9 77 3.0 E 20 24 11 13 1013.7 1013.7 0.0
 
Date/Time
EST
Temp
°C
App
Temp
°C
Dew
Point
°C
Rel
Hum
%
Delta-T
°C
Wind Press
QNH
hPa
Press
MSL
hPa
Rain since
9am
mm
Dir  Spd
km/h
Gust
km/h
Spd
kts
Gust
kts
21/11:30pm 28.2 30.9 24.2 79 2.8 E 17 22 9 12 1013.6 1013.6 0.0
21/11:00pm 28.1 30.1 23.9 78 2.9 E 20 26 11 14 1013.8 1013.8 0.0
21/10:30pm 28.1 31.2 24.1 79 2.8 E 15 20 8 11 1013.8 1013.8 0.0
21/10:00pm 28.2 30.2 23.6 76 3.2 E 19 24 10 13 1013.8 1013.8 0.0
21/09:30pm 28.3 31.2 23.9 77 3.0 E 15 20 8 11 1013.6 1013.6 0.0
21/09:00pm 28.2 31.1 23.8 77 3.0 E 15 19 8 10 1013.5 1013.5 0.0
21/08:30pm 28.1 31.5 24.1 79 2.8 E 13 17 7 9 1013.1 1013.1 0.0
21/08:00pm 28.1 30.5 23.7 77 3.0 E 17 22 9 12 1013.1 1013.1 0.0
21/07:30pm 28.2 30.4 24.0 78 2.9 E 19 24 10 13 1013.0 1013.0 0.0
21/07:00pm 28.1 31.0 23.9 78 2.9 E 15 20 8 11 1012.7 1012.7 0.0
21/06:30pm 28.4 30.7 23.5 75 3.4 E 17 24 9 13 1012.4 1012.4 0.0
21/06:00pm 28.7 31.4 22.9 71 4.0 E 13 19 7 10 1012.1 1012.1 0.0
21/05:30pm 29.5 31.5 23.0 68 4.4 E 17 22 9 12 1011.9 1011.9 0.0
21/05:00pm 29.8 31.7 22.8 66 4.8 ENE 17 22 9 12 1011.8 1011.8 0.0
21/04:30pm 29.9 32.1 23.3 67 4.5 ENE 17 22 9 12 1011.7 1011.7 0.0
21/04:00pm 30.6 32.4 23.5 66 4.9 ENE 20 26 11 14 1011.6 1011.6 0.0

Other Formats:

Comma delimited format used in spreadsheet applications
http://www.bom.gov.au/fwo/IDQ60801/IDQ60801.95367.axf

JavaScript Object Notation format (JSON) in row-major order
http://www.bom.gov.au/fwo/IDQ60801/IDQ60801.95367.json